sensor_id;sensor_type;location;lat;lon;timestamp;pressure;altitude;pressure_sealevel;temperature;humidity
63399;BME280;49533;-34.520;150.798;2024-03-22T00:00:00;101564.97;;;21.37;53.06
63399;BME280;49533;-34.520;150.798;2024-03-22T00:02:27;101587.97;;;21.53;52.96
63399;BME280;49533;-34.520;150.798;2024-03-22T00:04:54;101584.47;;;21.56;52.32
63399;BME280;49533;-34.520;150.798;2024-03-22T00:07:21;101530.03;;;21.28;52.65
63399;BME280;49533;-34.520;150.798;2024-03-22T00:09:48;101584.66;;;21.63;52.23
63399;BME280;49533;-34.520;150.798;2024-03-22T00:12:16;101317.41;;;19.96;52.22
63399;BME280;49533;-34.520;150.798;2024-03-22T00:14:43;101577.63;;;21.66;52.48
63399;BME280;49533;-34.520;150.798;2024-03-22T00:17:10;101516.94;;;21.25;52.65
63399;BME280;49533;-34.520;150.798;2024-03-22T00:19:37;101534.34;;;21.42;52.46
63399;BME280;49533;-34.520;150.798;2024-03-22T00:22:04;101544.31;;;21.62;52.28
63399;BME280;49533;-34.520;150.798;2024-03-22T00:24:31;101555.84;;;21.64;52.12
63399;BME280;49533;-34.520;150.798;2024-03-22T00:26:58;101520.25;;;21.47;51.98
63399;BME280;49533;-34.520;150.798;2024-03-22T00:29:25;101569.66;;;21.80;51.77
63399;BME280;49533;-34.520;150.798;2024-03-22T00:31:53;101564.22;;;21.84;51.74
63399;BME280;49533;-34.520;150.798;2024-03-22T00:34:20;101523.38;;;21.61;51.95
63399;BME280;49533;-34.520;150.798;2024-03-22T00:36:47;101254.19;;;20.04;52.27
63399;BME280;49533;-34.520;150.798;2024-03-22T00:39:14;101535.91;;;21.90;52.15
63399;BME280;49533;-34.520;150.798;2024-03-22T00:41:41;101474.06;;;21.47;51.99
63399;BME280;49533;-34.520;150.798;2024-03-22T00:44:08;101517.47;;;21.79;51.25
63399;BME280;49533;-34.520;150.798;2024-03-22T00:46:35;101477.81;;;21.55;51.42
63399;BME280;49533;-34.520;150.798;2024-03-22T00:49:03;101546.69;;;22.11;52.13
63399;BME280;49533;-34.520;150.798;2024-03-22T00:51:30;101449.97;;;21.64;51.95
63399;BME280;49533;-34.520;150.798;2024-03-22T00:53:57;101493.88;;;21.85;51.77
63399;BME280;49533;-34.520;150.798;2024-03-22T00:56:24;101499.16;;;21.90;51.49
63399;BME280;49533;-34.520;150.798;2024-03-22T00:58:51;101504.50;;;21.99;51.01
63399;BME280;49533;-34.520;150.798;2024-03-22T01:01:18;101467.59;;;21.75;51.60
63399;BME280;49533;-34.520;150.798;2024-03-22T01:03:46;101494.41;;;21.90;51.53
63399;BME280;49533;-34.520;150.798;2024-03-22T01:06:13;101528.63;;;22.18;51.77
63399;BME280;49533;-34.520;150.798;2024-03-22T01:08:40;101438.00;;;21.60;51.60
63399;BME280;49533;-34.520;150.798;2024-03-22T01:11:07;101489.41;;;21.96;51.59
63399;BME280;49533;-34.520;150.798;2024-03-22T01:13:37;101518.34;;;22.18;51.81
63399;BME280;49533;-34.520;150.798;2024-03-22T01:16:04;101482.81;;;21.85;51.79
63399;BME280;49533;-34.520;150.798;2024-03-22T01:18:32;101358.78;;;21.16;51.86
63399;BME280;49533;-34.520;150.798;2024-03-22T01:20:59;101461.16;;;21.87;51.64
63399;BME280;49533;-34.520;150.798;2024-03-22T01:23:26;101513.28;;;22.20;51.77
63399;BME280;49533;-34.520;150.798;2024-03-22T01:25:54;101507.81;;;22.24;51.50
63399;BME280;49533;-34.520;150.798;2024-03-22T01:28:24;101498.44;;;22.28;51.44
63399;BME280;49533;-34.520;150.798;2024-03-22T01:30:51;101501.34;;;22.35;51.49
63399;BME280;49533;-34.520;150.798;2024-03-22T01:33:18;101418.63;;;21.95;51.80
63399;BME280;49533;-34.520;150.798;2024-03-22T01:35:45;101435.53;;;22.09;51.95
63399;BME280;49533;-34.520;150.798;2024-03-22T01:38:12;101466.88;;;22.33;51.43
63399;BME280;49533;-34.520;150.798;2024-03-22T01:40:40;101492.13;;;22.47;50.87
63399;BME280;49533;-34.520;150.798;2024-03-22T01:43:09;101476.09;;;22.37;51.25
63399;BME280;49533;-34.520;150.798;2024-03-22T01:45:37;101491.38;;;22.50;51.39
63399;BME280;49533;-34.520;150.798;2024-03-22T01:48:04;101296.00;;;21.33;51.29
63399;BME280;49533;-34.520;150.798;2024-03-22T01:50:32;101340.72;;;21.54;51.28
63399;BME280;49533;-34.520;150.798;2024-03-22T01:52:59;101390.66;;;22.00;51.34
63399;BME280;49533;-34.520;150.798;2024-03-22T01:55:28;101472.84;;;22.54;51.17
63399;BME280;49533;-34.520;150.798;2024-03-22T01:57:56;101260.97;;;21.21;51.29
63399;BME280;49533;-34.520;150.798;2024-03-22T02:00:23;101390.09;;;22.10;51.24
63399;BME280;49533;-34.520;150.798;2024-03-22T02:02:50;101467.88;;;22.64;51.71
63399;BME280;49533;-34.520;150.798;2024-03-22T02:05:18;101436.00;;;22.50;51.56
63399;BME280;49533;-34.520;150.798;2024-03-22T02:07:47;101456.06;;;22.67;51.68
63399;BME280;49533;-34.520;150.798;2024-03-22T02:10:14;101457.69;;;22.68;51.54
63399;BME280;49533;-34.520;150.798;2024-03-22T02:12:42;101434.16;;;22.58;51.62
63399;BME280;49533;-34.520;150.798;2024-03-22T02:15:09;101440.75;;;22.73;51.66
63399;BME280;49533;-34.520;150.798;2024-03-22T02:17:37;101440.38;;;22.74;51.57
63399;BME280;49533;-34.520;150.798;2024-03-22T02:20:04;101357.94;;;22.22;51.65
63399;BME280;49533;-34.520;150.798;2024-03-22T02:22:32;101388.78;;;22.43;51.89
63399;BME280;49533;-34.520;150.798;2024-03-22T02:24:59;101434.91;;;22.78;51.34
63399;BME280;49533;-34.520;150.798;2024-03-22T02:27:26;101427.09;;;22.84;51.58
63399;BME280;49533;-34.520;150.798;2024-03-22T02:29:54;101368.34;;;22.51;51.37
63399;BME280;49533;-34.520;150.798;2024-03-22T02:32:21;101419.63;;;22.88;51.62
63399;BME280;49533;-34.520;150.798;2024-03-22T02:34:48;101220.38;;;21.60;51.42
63399;BME280;49533;-34.520;150.798;2024-03-22T02:37:15;101413.72;;;22.89;51.60
63399;BME280;49533;-34.520;150.798;2024-03-22T02:39:42;101406.66;;;22.92;51.56
63399;BME280;49533;-34.520;150.798;2024-03-22T02:42:09;101350.75;;;22.63;51.58
63399;BME280;49533;-34.520;150.798;2024-03-22T02:44:37;101402.78;;;22.96;51.71
63399;BME280;49533;-34.520;150.798;2024-03-22T02:47:09;101390.53;;;22.97;51.63
63399;BME280;49533;-34.520;150.798;2024-03-22T02:49:38;101345.72;;;22.69;51.84
63399;BME280;49533;-34.520;150.798;2024-03-22T02:52:05;101393.38;;;23.01;51.76
63399;BME280;49533;-34.520;150.798;2024-03-22T02:54:33;101388.63;;;23.02;51.67
63399;BME280;49533;-34.520;150.798;2024-03-22T02:57:00;101375.81;;;22.93;51.68
63399;BME280;49533;-34.520;150.798;2024-03-22T02:59:28;101384.19;;;22.97;51.67
63399;BME280;49533;-34.520;150.798;2024-03-22T03:01:55;101366.19;;;22.87;51.65
63399;BME280;49533;-34.520;150.798;2024-03-22T03:04:23;101375.81;;;22.93;51.81
63399;BME280;49533;-34.520;150.798;2024-03-22T03:06:50;101363.84;;;22.89;51.97
63399;BME280;49533;-34.520;150.798;2024-03-22T03:09:17;101360.97;;;22.82;52.21
63399;BME280;49533;-34.520;150.798;2024-03-22T03:11:44;101343.19;;;22.83;52.09
63399;BME280;49533;-34.520;150.798;2024-03-22T03:14:11;101364.44;;;22.98;52.23
63399;BME280;49533;-34.520;150.798;2024-03-22T03:16:38;101359.31;;;23.00;52.49
63399;BME280;49533;-34.520;150.798;2024-03-22T03:19:05;101358.94;;;23.02;52.79
63399;BME280;49533;-34.520;150.798;2024-03-22T03:21:32;101354.28;;;23.06;52.35
63399;BME280;49533;-34.520;150.798;2024-03-22T03:24:00;101354.69;;;23.08;52.55
63399;BME280;49533;-34.520;150.798;2024-03-22T03:26:27;101313.94;;;22.86;52.55
63399;BME280;49533;-34.520;150.798;2024-03-22T03:28:54;101351.22;;;23.15;52.43
63399;BME280;49533;-34.520;150.798;2024-03-22T03:31:22;101338.94;;;23.16;52.35
63399;BME280;49533;-34.520;150.798;2024-03-22T03:33:49;101260.59;;;22.66;52.15
63399;BME280;49533;-34.520;150.798;2024-03-22T03:36:16;101333.47;;;23.19;52.45
63399;BME280;49533;-34.520;150.798;2024-03-22T03:38:43;101337.84;;;23.20;52.57
63399;BME280;49533;-34.520;150.798;2024-03-22T03:41:10;101329.53;;;23.20;52.56
63399;BME280;49533;-34.520;150.798;2024-03-22T03:43:37;101330.31;;;23.21;52.42
63399;BME280;49533;-34.520;150.798;2024-03-22T03:46:04;101324.41;;;23.22;52.46
63399;BME280;49533;-34.520;150.798;2024-03-22T03:48:31;101320.44;;;23.23;52.37
63399;BME280;49533;-34.520;150.798;2024-03-22T03:50:59;101288.47;;;23.03;52.35
63399;BME280;49533;-34.520;150.798;2024-03-22T03:53:32;101324.03;;;23.24;52.12
63399;BME280;49533;-34.520;150.798;2024-03-22T03:55:59;101273.41;;;23.00;52.47
63399;BME280;49533;-34.520;150.798;2024-03-22T03:58:26;101269.91;;;23.04;52.33
63399;BME280;49533;-34.520;150.798;2024-03-22T04:00:53;101297.03;;;23.21;52.54
63399;BME280;49533;-34.520;150.798;2024-03-22T04:03:20;101276.06;;;22.93;52.57
63399;BME280;49533;-34.520;150.798;2024-03-22T04:05:56;101251.66;;;23.03;52.54
63399;BME280;49533;-34.520;150.798;2024-03-22T04:08:29;101282.97;;;23.33;52.55
63399;BME280;49533;-34.520;150.798;2024-03-22T04:10:58;101240.63;;;23.06;52.33
63399;BME280;49533;-34.520;150.798;2024-03-22T04:13:27;101273.50;;;23.34;52.61
63399;BME280;49533;-34.520;150.798;2024-03-22T04:15:54;101268.34;;;23.36;52.71
63399;BME280;49533;-34.520;150.798;2024-03-22T04:18:25;101260.03;;;23.36;52.77
63399;BME280;49533;-34.520;150.798;2024-03-22T04:20:56;101271.53;;;23.38;52.42
63399;BME280;49533;-34.520;150.798;2024-03-22T04:23:24;101178.56;;;22.88;52.75
63399;BME280;49533;-34.520;150.798;2024-03-22T04:25:58;101233.63;;;23.16;52.91
63399;BME280;49533;-34.520;150.798;2024-03-22T04:28:29;101189.03;;;22.98;52.69
63399;BME280;49533;-34.520;150.798;2024-03-22T04:31:07;101241.38;;;23.33;52.96
63399;BME280;49533;-34.520;150.798;2024-03-22T04:33:36;101254.56;;;23.43;52.82
63399;BME280;49533;-34.520;150.798;2024-03-22T04:36:04;101256.19;;;23.44;52.83
63399;BME280;49533;-34.520;150.798;2024-03-22T04:38:32;101250.63;;;23.44;52.78
63399;BME280;49533;-34.520;150.798;2024-03-22T04:40:59;101247.47;;;23.46;52.53
63399;BME280;49533;-34.520;150.798;2024-03-22T04:43:28;101187.50;;;23.00;52.80
63399;BME280;49533;-34.520;150.798;2024-03-22T04:45:55;101247.03;;;23.44;52.67
63399;BME280;49533;-34.520;150.798;2024-03-22T04:48:23;101201.91;;;23.13;52.64
63399;BME280;49533;-34.520;150.798;2024-03-22T04:50:52;101076.69;;;22.44;52.77
63399;BME280;49533;-34.520;150.798;2024-03-22T04:53:20;101225.69;;;23.44;52.63
63399;BME280;49533;-34.520;150.798;2024-03-22T04:55:48;101218.94;;;23.46;52.60
63399;BME280;49533;-34.520;150.798;2024-03-22T04:58:18;101224.50;;;23.46;52.66
63399;BME280;49533;-34.520;150.798;2024-03-22T05:00:49;101212.63;;;23.49;52.40
63399;BME280;49533;-34.520;150.798;2024-03-22T05:03:16;101199.97;;;23.48;52.61
63399;BME280;49533;-34.520;150.798;2024-03-22T05:05:44;101205.50;;;23.48;52.81
63399;BME280;49533;-34.520;150.798;2024-03-22T05:08:11;101207.88;;;23.49;52.57
63399;BME280;49533;-34.520;150.798;2024-03-22T05:10:38;101120.81;;;22.90;52.59
63399;BME280;49533;-34.520;150.798;2024-03-22T05:13:05;101173.66;;;23.34;52.54
63399;BME280;49533;-34.520;150.798;2024-03-22T05:15:32;101077.13;;;22.76;52.63
63399;BME280;49533;-34.520;150.798;2024-03-22T05:18:00;101146.75;;;23.38;52.88
63399;BME280;49533;-34.520;150.798;2024-03-22T05:20:27;101165.16;;;23.54;52.61
63399;BME280;49533;-34.520;150.798;2024-03-22T05:22:54;101186.88;;;23.82;52.66
63399;BME280;49533;-34.520;150.798;2024-03-22T05:25:21;101138.25;;;23.58;52.54
63399;BME280;49533;-34.520;150.798;2024-03-22T05:27:49;101161.44;;;23.76;52.52
63399;BME280;49533;-34.520;150.798;2024-03-22T05:30:16;101173.09;;;23.93;52.46
63399;BME280;49533;-34.520;150.798;2024-03-22T05:32:43;101184.69;;;24.02;52.24
63399;BME280;49533;-34.520;150.798;2024-03-22T05:35:10;101141.69;;;23.85;52.29
63399;BME280;49533;-34.520;150.798;2024-03-22T05:37:37;101162.13;;;24.07;52.56
63399;BME280;49533;-34.520;150.798;2024-03-22T05:40:05;101089.16;;;23.62;52.42
63399;BME280;49533;-34.520;150.798;2024-03-22T05:42:32;101168.91;;;24.13;52.58
63399;BME280;49533;-34.520;150.798;2024-03-22T05:44:59;101132.28;;;23.93;52.24
63399;BME280;49533;-34.520;150.798;2024-03-22T05:47:26;101172.94;;;24.19;52.33
63399;BME280;49533;-34.520;150.798;2024-03-22T05:49:54;101171.72;;;24.20;52.60
63399;BME280;49533;-34.520;150.798;2024-03-22T05:52:21;101159.81;;;24.16;52.67
63399;BME280;49533;-34.520;150.798;2024-03-22T05:54:48;101170.97;;;24.23;52.21
63399;BME280;49533;-34.520;150.798;2024-03-22T05:57:15;101173.75;;;24.23;52.38
63399;BME280;49533;-34.520;150.798;2024-03-22T05:59:42;101185.25;;;24.25;52.48
63399;BME280;49533;-34.520;150.798;2024-03-22T06:02:09;101145.03;;;24.01;52.15
63399;BME280;49533;-34.520;150.798;2024-03-22T06:04:36;101185.31;;;24.29;52.16
63399;BME280;49533;-34.520;150.798;2024-03-22T06:07:04;101182.13;;;24.30;52.25
63399;BME280;49533;-34.520;150.798;2024-03-22T06:09:32;101180.97;;;24.32;51.94
63399;BME280;49533;-34.520;150.798;2024-03-22T06:12:18;101171.44;;;24.33;52.23
63399;BME280;49533;-34.520;150.798;2024-03-22T06:14:45;101172.59;;;24.28;51.86
63399;BME280;49533;-34.520;150.798;2024-03-22T06:17:14;101154.28;;;24.20;52.37
63399;BME280;49533;-34.520;150.798;2024-03-22T06:19:42;101173.44;;;24.36;52.22
63399;BME280;49533;-34.520;150.798;2024-03-22T06:22:09;101172.28;;;24.37;51.92
63399;BME280;49533;-34.520;150.798;2024-03-22T06:24:36;101113.31;;;24.02;52.03
63399;BME280;49533;-34.520;150.798;2024-03-22T06:27:03;101173.06;;;24.37;52.06
63399;BME280;49533;-34.520;150.798;2024-03-22T06:29:30;101140.75;;;24.11;51.94
63399;BME280;49533;-34.520;150.798;2024-03-22T06:31:58;101168.72;;;24.40;52.14
63399;BME280;49533;-34.520;150.798;2024-03-22T06:34:25;101148.75;;;24.23;52.21
63399;BME280;49533;-34.520;150.798;2024-03-22T06:36:52;101174.69;;;24.42;52.16
63399;BME280;49533;-34.520;150.798;2024-03-22T06:39:19;101157.97;;;24.38;51.91
63399;BME280;49533;-34.520;150.798;2024-03-22T06:41:46;101136.78;;;24.16;52.02
63399;BME280;49533;-34.520;150.798;2024-03-22T06:44:13;101162.00;;;24.44;52.02
63399;BME280;49533;-34.520;150.798;2024-03-22T06:46:40;101127.66;;;24.15;52.19
63399;BME280;49533;-34.520;150.798;2024-03-22T06:49:07;101170.72;;;24.43;51.82
63399;BME280;49533;-34.520;150.798;2024-03-22T06:51:34;101165.94;;;24.43;51.87
63399;BME280;49533;-34.520;150.798;2024-03-22T06:54:02;101164.38;;;24.42;52.09
63399;BME280;49533;-34.520;150.798;2024-03-22T06:56:30;101163.16;;;24.43;52.00
63399;BME280;49533;-34.520;150.798;2024-03-22T06:58:57;101162.75;;;24.41;51.82
63399;BME280;49533;-34.520;150.798;2024-03-22T07:01:24;101159.56;;;24.36;51.74
63399;BME280;49533;-34.520;150.798;2024-03-22T07:03:51;101163.59;;;24.42;52.08
63399;BME280;49533;-34.520;150.798;2024-03-22T07:06:19;101138.84;;;24.26;51.64
63399;BME280;49533;-34.520;150.798;2024-03-22T07:08:46;101167.56;;;24.44;51.74
63399;BME280;49533;-34.520;150.798;2024-03-22T07:11:14;101135.69;;;24.24;52.15
63399;BME280;49533;-34.520;150.798;2024-03-22T07:13:41;101169.97;;;24.46;51.99
63399;BME280;49533;-34.520;150.798;2024-03-22T07:16:08;101167.97;;;24.46;51.58
63399;BME280;49533;-34.520;150.798;2024-03-22T07:18:35;101146.44;;;24.29;51.82
63399;BME280;49533;-34.520;150.798;2024-03-22T07:21:03;101092.25;;;23.98;51.93
63399;BME280;49533;-34.520;150.798;2024-03-22T07:23:30;101044.38;;;23.60;52.06
63399;BME280;49533;-34.520;150.798;2024-03-22T07:25:57;101145.22;;;24.26;51.96
63399;BME280;49533;-34.520;150.798;2024-03-22T07:28:25;101173.13;;;24.44;51.81
63399;BME280;49533;-34.520;150.798;2024-03-22T07:30:52;101086.25;;;23.89;51.50
63399;BME280;49533;-34.520;150.798;2024-03-22T07:33:21;101099.00;;;24.00;51.89
63399;BME280;49533;-34.520;150.798;2024-03-22T07:35:48;101135.59;;;24.13;51.67
63399;BME280;49533;-34.520;150.798;2024-03-22T07:38:15;101183.03;;;24.42;51.83
63399;BME280;49533;-34.520;150.798;2024-03-22T07:40:42;101173.44;;;24.36;51.82
63399;BME280;49533;-34.520;150.798;2024-03-22T07:43:10;101188.94;;;24.40;52.03
63399;BME280;49533;-34.520;150.798;2024-03-22T07:45:37;101106.84;;;23.87;52.01
63399;BME280;49533;-34.520;150.798;2024-03-22T07:48:05;101107.31;;;23.97;51.83
63399;BME280;49533;-34.520;150.798;2024-03-22T07:50:32;101181.03;;;24.42;51.65
63399;BME280;49533;-34.520;150.798;2024-03-22T07:52:59;101184.97;;;24.41;52.12
63399;BME280;49533;-34.520;150.798;2024-03-22T07:55:26;101183.41;;;24.40;51.99
63399;BME280;49533;-34.520;150.798;2024-03-22T07:57:54;101132.66;;;23.95;52.17
63399;BME280;49533;-34.520;150.798;2024-03-22T08:00:21;101179.59;;;24.11;52.86
63399;BME280;49533;-34.520;150.798;2024-03-22T08:02:48;100988.22;;;22.88;53.17
63399;BME280;49533;-34.520;150.798;2024-03-22T08:05:15;101155.09;;;23.76;53.16
63399;BME280;49533;-34.520;150.798;2024-03-22T08:07:42;101102.81;;;23.40;53.34
63399;BME280;49533;-34.520;150.798;2024-03-22T08:10:10;101119.47;;;23.44;53.45
63399;BME280;49533;-34.520;150.798;2024-03-22T08:12:37;101159.75;;;23.68;53.22
63399;BME280;49533;-34.520;150.798;2024-03-22T08:15:05;101194.16;;;23.97;53.13
63399;BME280;49533;-34.520;150.798;2024-03-22T08:17:32;101200.91;;;24.00;53.00
63399;BME280;49533;-34.520;150.798;2024-03-22T08:19:59;101198.56;;;24.02;52.75
63399;BME280;49533;-34.520;150.798;2024-03-22T08:22:26;101188.16;;;23.95;53.08
63399;BME280;49533;-34.520;150.798;2024-03-22T08:24:53;101187.66;;;23.82;52.82
63399;BME280;49533;-34.520;150.798;2024-03-22T08:27:22;101185.72;;;23.86;52.73
63399;BME280;49533;-34.520;150.798;2024-03-22T08:29:50;101189.72;;;23.93;52.50
63399;BME280;49533;-34.520;150.798;2024-03-22T08:32:18;101199.31;;;23.99;52.58
63399;BME280;49533;-34.520;150.798;2024-03-22T08:34:45;101210.50;;;24.06;52.58
63399;BME280;49533;-34.520;150.798;2024-03-22T08:37:12;101165.06;;;23.80;52.39
63399;BME280;49533;-34.520;150.798;2024-03-22T08:39:40;101201.78;;;24.07;52.43
63399;BME280;49533;-34.520;150.798;2024-03-22T08:42:07;101205.34;;;24.08;52.47
63399;BME280;49533;-34.520;150.798;2024-03-22T08:44:36;101205.34;;;24.08;52.45
63399;BME280;49533;-34.520;150.798;2024-03-22T08:47:03;101161.88;;;23.78;52.38
63399;BME280;49533;-34.520;150.798;2024-03-22T08:49:30;101213.66;;;24.08;52.22
63399;BME280;49533;-34.520;150.798;2024-03-22T08:51:57;101218.84;;;24.09;52.04
63399;BME280;49533;-34.520;150.798;2024-03-22T08:54:24;101211.72;;;24.08;51.98
63399;BME280;49533;-34.520;150.798;2024-03-22T08:56:51;101076.03;;;23.18;51.85
63399;BME280;49533;-34.520;150.798;2024-03-22T08:59:19;101206.16;;;24.08;52.22
63399;BME280;49533;-34.520;150.798;2024-03-22T09:01:46;101216.84;;;24.06;52.15
63399;BME280;49533;-34.520;150.798;2024-03-22T09:04:14;101190.78;;;23.77;51.87
63399;BME280;49533;-34.520;150.798;2024-03-22T09:06:41;101222.41;;;24.06;51.86
63399;BME280;49533;-34.520;150.798;2024-03-22T09:09:08;101203.97;;;23.87;51.98
63399;BME280;49533;-34.520;150.798;2024-03-22T09:11:36;101231.88;;;24.05;51.75
63399;BME280;49533;-34.520;150.798;2024-03-22T09:14:03;101170.00;;;23.64;51.78
63399;BME280;49533;-34.520;150.798;2024-03-22T09:16:30;101235.06;;;24.04;51.76
63399;BME280;49533;-34.520;150.798;2024-03-22T09:18:57;101230.66;;;24.03;51.89
63399;BME280;49533;-34.520;150.798;2024-03-22T09:21:24;101194.31;;;23.74;51.99
63399;BME280;49533;-34.520;150.798;2024-03-22T09:23:51;101189.84;;;23.66;51.95
63399;BME280;49533;-34.520;150.798;2024-03-22T09:26:18;101183.06;;;23.60;51.83
63399;BME280;49533;-34.520;150.798;2024-03-22T09:28:49;101220.50;;;23.77;52.15
63399;BME280;49533;-34.520;150.798;2024-03-22T09:31:19;101209.69;;;23.68;51.90
63399;BME280;49533;-34.520;150.798;2024-03-22T09:33:46;101212.06;;;23.70;52.15
63399;BME280;49533;-34.520;150.798;2024-03-22T09:36:13;101242.47;;;23.93;51.78
63399;BME280;49533;-34.520;150.798;2024-03-22T09:38:40;101191.38;;;23.60;51.93
63399;BME280;49533;-34.520;150.798;2024-03-22T09:41:08;101243.22;;;23.90;52.10
63399;BME280;49533;-34.520;150.798;2024-03-22T09:43:35;101249.56;;;23.86;52.18
63399;BME280;49533;-34.520;150.798;2024-03-22T09:46:05;101246.34;;;23.84;52.31
63399;BME280;49533;-34.520;150.798;2024-03-22T09:48:33;101232.78;;;23.76;52.00
63399;BME280;49533;-34.520;150.798;2024-03-22T09:51:01;101229.53;;;23.70;51.89
63399;BME280;49533;-34.520;150.798;2024-03-22T09:53:30;101229.41;;;23.59;52.29
63399;BME280;49533;-34.520;150.798;2024-03-22T09:55:59;101252.66;;;23.81;52.38
63399;BME280;49533;-34.520;150.798;2024-03-22T09:58:29;101199.88;;;23.40;52.19
63399;BME280;49533;-34.520;150.798;2024-03-22T10:00:56;101261.34;;;23.80;52.11
63399;BME280;49533;-34.520;150.798;2024-03-22T10:03:26;101266.13;;;23.79;51.99
63399;BME280;49533;-34.520;150.798;2024-03-22T10:05:54;101216.53;;;23.44;51.99
63399;BME280;49533;-34.520;150.798;2024-03-22T10:08:21;101225.63;;;23.41;52.37
63399;BME280;49533;-34.520;150.798;2024-03-22T10:10:48;101277.13;;;23.72;52.42
63399;BME280;49533;-34.520;150.798;2024-03-22T10:13:15;101272.31;;;23.69;52.44
63399;BME280;49533;-34.520;150.798;2024-03-22T10:15:42;101271.53;;;23.69;52.53
63399;BME280;49533;-34.520;150.798;2024-03-22T10:18:10;101271.50;;;23.65;52.43
63399;BME280;49533;-34.520;150.798;2024-03-22T10:20:37;101275.41;;;23.64;52.59
63399;BME280;49533;-34.520;150.798;2024-03-22T10:23:04;101095.06;;;22.55;52.40
63399;BME280;49533;-34.520;150.798;2024-03-22T10:25:32;101188.47;;;23.15;52.53
63399;BME280;49533;-34.520;150.798;2024-03-22T10:28:00;101261.88;;;23.59;52.43
63399;BME280;49533;-34.520;150.798;2024-03-22T10:30:28;101237.81;;;23.33;52.44
63399;BME280;49533;-34.520;150.798;2024-03-22T10:32:55;101219.34;;;23.14;52.41
63399;BME280;49533;-34.520;150.798;2024-03-22T10:35:23;101241.81;;;23.35;52.23
63399;BME280;49533;-34.520;150.798;2024-03-22T10:37:51;101281.69;;;23.57;52.38
63399;BME280;49533;-34.520;150.798;2024-03-22T10:40:23;101044.88;;;22.04;52.20
63399;BME280;49533;-34.520;150.798;2024-03-22T10:42:50;101279.19;;;23.49;52.32
63399;BME280;49533;-34.520;150.798;2024-03-22T10:45:17;101244.09;;;23.30;52.45
63399;BME280;49533;-34.520;150.798;2024-03-22T10:47:49;101263.97;;;23.35;52.27
63399;BME280;49533;-34.520;150.798;2024-03-22T10:50:19;101250.25;;;23.16;52.44
63399;BME280;49533;-34.520;150.798;2024-03-22T10:53:01;101279.84;;;23.38;52.59
63399;BME280;49533;-34.520;150.798;2024-03-22T10:55:34;101195.06;;;22.77;52.42
63399;BME280;49533;-34.520;150.798;2024-03-22T10:58:02;101295.81;;;23.45;52.51
63399;BME280;49533;-34.520;150.798;2024-03-22T11:00:31;101312.81;;;23.43;52.33
63399;BME280;49533;-34.520;150.798;2024-03-22T11:02:58;101305.59;;;23.39;52.27
63399;BME280;49533;-34.520;150.798;2024-03-22T11:05:29;101243.31;;;22.99;52.29
63399;BME280;49533;-34.520;150.798;2024-03-22T11:08:02;101317.91;;;23.41;52.56
63399;BME280;49533;-34.520;150.798;2024-03-22T11:10:34;101317.09;;;23.37;52.48
63399;BME280;49533;-34.520;150.798;2024-03-22T11:13:03;101212.41;;;22.70;52.45
63399;BME280;49533;-34.520;150.798;2024-03-22T11:15:31;101319.88;;;23.37;52.28
63399;BME280;49533;-34.520;150.798;2024-03-22T11:17:58;101324.22;;;23.38;52.26
63399;BME280;49533;-34.520;150.798;2024-03-22T11:20:29;101312.66;;;23.33;52.40
63399;BME280;49533;-34.520;150.798;2024-03-22T11:22:57;101281.47;;;23.09;52.26
63399;BME280;49533;-34.520;150.798;2024-03-22T11:25:24;101333.34;;;23.39;52.25
63399;BME280;49533;-34.520;150.798;2024-03-22T11:27:51;101318.19;;;23.29;52.18
63399;BME280;49533;-34.520;150.798;2024-03-22T11:30:29;101328.13;;;23.34;52.20
63399;BME280;49533;-34.520;150.798;2024-03-22T11:33:00;101285.66;;;22.99;52.54
63399;BME280;49533;-34.520;150.798;2024-03-22T11:35:27;101236.19;;;22.75;52.37
63399;BME280;49533;-34.520;150.798;2024-03-22T11:37:54;101290.88;;;23.05;52.69
63399;BME280;49533;-34.520;150.798;2024-03-22T11:40:28;101312.88;;;23.20;52.37
63399;BME280;49533;-34.520;150.798;2024-03-22T11:43:01;101283.31;;;23.02;52.49
63399;BME280;49533;-34.520;150.798;2024-03-22T11:45:29;101148.72;;;22.21;52.39
63399;BME280;49533;-34.520;150.798;2024-03-22T11:48:02;101295.34;;;23.13;52.34
63399;BME280;49533;-34.520;150.798;2024-03-22T11:50:30;101212.16;;;22.56;52.29
63399;BME280;49533;-34.520;150.798;2024-03-22T11:52:57;101269.75;;;22.96;52.32
63399;BME280;49533;-34.520;150.798;2024-03-22T11:55:27;101290.56;;;23.10;52.36
63399;BME280;49533;-34.520;150.798;2024-03-22T11:57:57;101285.38;;;23.08;52.46
63399;BME280;49533;-34.520;150.798;2024-03-22T12:00:25;101280.66;;;23.09;52.19
63399;BME280;49533;-34.520;150.798;2024-03-22T12:02:53;101188.31;;;22.48;52.34
63399;BME280;49533;-34.520;150.798;2024-03-22T12:05:21;101191.44;;;22.46;52.17
63399;BME280;49533;-34.520;150.798;2024-03-22T12:07:48;101263.63;;;22.84;52.36
63399;BME280;49533;-34.520;150.798;2024-03-22T12:10:15;101252.16;;;22.85;52.35
63399;BME280;49533;-34.520;150.798;2024-03-22T12:12:42;101209.41;;;22.56;52.15
63399;BME280;49533;-34.520;150.798;2024-03-22T12:15:09;101275.44;;;23.04;52.04
63399;BME280;49533;-34.520;150.798;2024-03-22T12:17:37;101257.69;;;22.85;52.28
63399;BME280;49533;-34.520;150.798;2024-03-22T12:20:09;101204.97;;;22.51;52.24
63399;BME280;49533;-34.520;150.798;2024-03-22T12:22:36;101274.16;;;22.97;52.20